Pagrindinis puslapis
METAR-TAF:

METAR-TAF

Oro uostai :

Magnitogorskas, Rusija

platuma: 53-23-36N, ilguma: 058-45-24E, Aukštis: 436 m

Dabartinis oras

Ataskaita buvo paskelbta 37 minutes, ne 13:00 UTC
Vėjas 14 kt iš Šiaurės Vakarų
Temperatūra 7°C
Drėgmė 49%
Slėgis 1011 hPa
Matomumas 10 km arba daugiau
Su prošvaistėmis ne aukštis 4000 ft, Liūtiniai kamuoliniai debesys.

METAR: USCM 141300Z 32007MPS 9999 BKN040CB 07/M03 Q1011 R36/090060 TEMPO 32013MPS RMK QFE719

Laikas: 18:37 (13:37 UTC)

Prognozė

Ataskaita buvo paskelbta 2 valandos ir 40 minutes, ne 10:57 UTC
Prognozė galioja nuo 14 metu 12 UTC su 14 metu 21 UTC
Vėjas 6 kt iš Vakarų/Šiaurės Vakarų su gūsio iki 23 kt
Matomumas 10 km arba daugiau
Su prošvaistėmis ne aukštis 2000 ft, Liūtiniai kamuoliniai debesys.
Laikinai
nuo 14 metu 12 UTC su 14 metu 18 UTC
Vėjas 16 kt iš Šiaurės Vakarų su gūsio iki 27 kt
Su prošvaistėmis ne aukštis 1600 ft, Liūtiniai kamuoliniai debesys.
lietus,

TAF: USCM 141057Z 1412/1421 30003G12MPS 9999 BKN020CB TEMPO 1412/1418 32008G14MPS -SHRA BKN016CB

Orai ataskaitas ir orų prognozės (METAR, TAF).

turimą stotys yra geltonos ir raudonos taškus žemėlapyje.

Perkelti pele per norėdami pamatyti stoties vardą.

Tada spustelėkite, norėdami matyti oro stebėjimo ir prognozės.

Norėdami pakeisti žemėlapį: spustelėkite ant žalios mygtukų su juodo kryžiaus žemyn,; žalią mygtuką su brūkšneliu, jei norite nutolinti; arba žalių rodyklių gretimoms žemėlapius.


METAR-TAF: